<?xml version="1.0" encoding="UTF-8" standalone="no" ?><gpx xmlns="http://www.topografix.com/GPX/1/1" xmlns:gpxx="http://www.garmin.com/xmlschemas/GpxExtensions/v3" xmlns:wptx1="http://www.garmin.com/xmlschemas/WaypointExtension/v1" xmlns:gpxtpx="http://www.garmin.com/xmlschemas/TrackPointExtension/v1" creator="GuideVTT.com" version="1.1" xmlns:xsi="http://www.w3.org/2001/XMLSchema-instance" xsi:schemaLocation="http://www.topografix.com/GPX/1/1 http://www.topografix.com/GPX/1/1/gpx.xsd http://www.garmin.com/xmlschemas/GpxExtensions/v3 http://www8.garmin.com/xmlschemas/GpxExtensionsv3.xsd http://www.garmin.com/xmlschemas/WaypointExtension/v1 http://www8.garmin.com/xmlschemas/WaypointExtensionv1.xsd http://www.garmin.com/xmlschemas/TrackPointExtension/v1 http://www.garmin.com/xmlschemas/TrackPointExtensionv1.xsd">
<metadata><link href="http://www.garmin.com"><text>Garmin International</text></link><time>2013-06-22T15:13:50Z</time></metadata>
<trk><name>ne_tn_748.gpx</name><extensions><gpxx:TrackExtension><gpxx:DisplayColor>Cyan</gpxx:DisplayColor></gpxx:TrackExtension></extensions><trkseg>
<trkpt lat="47.07273504" lon="6.86985365"><ele>1284.898071</ele><time>2008-04-14T16:40:00Z</time></trkpt>
<trkpt lat="47.07344335" lon="6.86938532"><ele>1280.471802</ele><time>2008-04-14T16:40:20Z</time></trkpt>
<trkpt lat="47.07335111" lon="6.86892547"><ele>1278.661987</ele><time>2008-04-14T16:40:29Z</time></trkpt>
<trkpt lat="47.07353876" lon="6.86867332"><ele>1275.176636</ele><time>2008-04-14T16:40:36Z</time></trkpt>
<trkpt lat="47.07326533" lon="6.86795207"><ele>1273.127319</ele><time>2008-04-14T16:40:51Z</time></trkpt>
<trkpt lat="47.07307375" lon="6.86741429"><ele>1270.218628</ele><time>2008-04-14T16:41:02Z</time></trkpt>
<trkpt lat="47.07240388" lon="6.86656563"><ele>1266.536499</ele><time>2008-04-14T16:41:25Z</time></trkpt>
<trkpt lat="47.07221244" lon="6.86605419"><ele>1266.099365</ele><time>2008-04-14T16:41:36Z</time></trkpt>
<trkpt lat="47.07266651" lon="6.86511454"><ele>1274.059814</ele><time>2008-04-14T16:41:57Z</time></trkpt>
<trkpt lat="47.07265861" lon="6.86353468"><ele>1282.614014</ele><time>2008-04-14T16:42:26Z</time></trkpt>
<trkpt lat="47.07242886" lon="6.86256285"><ele>1284.206421</ele><time>2008-04-14T16:42:45Z</time></trkpt>
<trkpt lat="47.07219063" lon="6.86169645"><ele>1282.330566</ele><time>2008-04-14T16:43:02Z</time></trkpt>
<trkpt lat="47.07259348" lon="6.86131030"><ele>1277.95874</ele><time>2008-04-14T16:43:14Z</time></trkpt>
<trkpt lat="47.07318415" lon="6.86071145"><ele>1270.787842</ele><time>2008-04-14T16:43:34Z</time></trkpt>
<trkpt lat="47.07349599" lon="6.86011560"><ele>1272.272339</ele><time>2008-04-14T16:43:47Z</time></trkpt>
<trkpt lat="47.07344597" lon="6.85911549"><ele>1268.029297</ele><time>2008-04-14T16:44:05Z</time></trkpt>
<trkpt lat="47.07316321" lon="6.85834174"><ele>1263.94873</ele><time>2008-04-14T16:44:21Z</time></trkpt>
<trkpt lat="47.07311258" lon="6.85722315"><ele>1256.385376</ele><time>2008-04-14T16:44:42Z</time></trkpt>
<trkpt lat="47.07239200" lon="6.85703347"><ele>1260.601563</ele><time>2008-04-14T16:45:01Z</time></trkpt>
<trkpt lat="47.07190389" lon="6.85656478"><ele>1264.139404</ele><time>2008-04-14T16:45:17Z</time></trkpt>
<trkpt lat="47.07118437" lon="6.85658576"><ele>1272.188965</ele><time>2008-04-14T16:45:36Z</time></trkpt>
<trkpt lat="47.07028490" lon="6.85659552"><ele>1287.48938</ele><time>2008-04-14T16:46:00Z</time></trkpt>
<trkpt lat="47.06937369" lon="6.85606563"><ele>1291.674072</ele><time>2008-04-14T16:46:26Z</time></trkpt>
<trkpt lat="47.06865218" lon="6.85569168"><ele>1303.599609</ele><time>2008-04-14T16:46:47Z</time></trkpt>
<trkpt lat="47.06762377" lon="6.85511043"><ele>1320.946533</ele><time>2008-04-14T16:47:16Z</time></trkpt>
<trkpt lat="47.06672429" lon="6.85512022"><ele>1328.789185</ele><time>2008-04-14T16:47:40Z</time></trkpt>
<trkpt lat="47.06618354" lon="6.85491547"><ele>1330.467285</ele><time>2008-04-14T16:47:55Z</time></trkpt>
<trkpt lat="47.06518318" lon="6.85454459"><ele>1330.809448</ele><time>2008-04-14T16:48:23Z</time></trkpt>
<trkpt lat="47.06451656" lon="6.85435439"><ele>1328.990234</ele><time>2008-04-14T16:48:41Z</time></trkpt>
<trkpt lat="47.06226948" lon="6.85469479"><ele>1312.450684</ele><time>2008-04-14T16:49:41Z</time></trkpt>
<trkpt lat="47.06118278" lon="6.85503571"><ele>1304.950195</ele><time>2008-04-14T16:50:11Z</time></trkpt>
<trkpt lat="47.06197733" lon="6.85917360"><ele>1310.726196</ele><time>2008-04-14T16:51:29Z</time></trkpt>
<trkpt lat="47.06134876" lon="6.85939100"><ele>1324.511963</ele><time>2008-04-14T16:51:47Z</time></trkpt>
<trkpt lat="47.05976236" lon="6.85874998"><ele>1339.279419</ele><time>2008-04-14T16:52:30Z</time></trkpt>
<trkpt lat="47.05904437" lon="6.85907366"><ele>1342.504883</ele><time>2008-04-14T16:52:51Z</time></trkpt>
<trkpt lat="47.05792941" lon="6.85916468"><ele>1324.2771</ele><time>2008-04-14T16:53:20Z</time></trkpt>
<trkpt lat="47.05738434" lon="6.85810441"><ele>1326.327026</ele><time>2008-04-14T16:53:45Z</time></trkpt>
<trkpt lat="47.05539683" lon="6.85641486"><ele>1328.303589</ele><time>2008-04-14T16:54:46Z</time></trkpt>
<trkpt lat="47.05535419" lon="6.85687599"><ele>1322.164307</ele><time>2008-04-14T16:54:54Z</time></trkpt>
<trkpt lat="47.05481817" lon="6.85760571"><ele>1311.863281</ele><time>2008-04-14T16:55:14Z</time></trkpt>
<trkpt lat="47.05418087" lon="6.85787584"><ele>1304.191284</ele><time>2008-04-14T16:55:32Z</time></trkpt>
<trkpt lat="47.05441773" lon="6.85846556"><ele>1294.747314</ele><time>2008-04-14T16:55:44Z</time></trkpt>
<trkpt lat="47.05486920" lon="6.85880288"><ele>1289.689209</ele><time>2008-04-14T16:55:58Z</time></trkpt>
<trkpt lat="47.05482655" lon="6.85926401"><ele>1282.369263</ele><time>2008-04-14T16:56:06Z</time></trkpt>
<trkpt lat="47.05432251" lon="6.85920364"><ele>1280.337524</ele><time>2008-04-14T16:56:20Z</time></trkpt>
<trkpt lat="47.05419857" lon="6.85959983"><ele>1275.03479</ele><time>2008-04-14T16:56:28Z</time></trkpt>
<trkpt lat="47.05451730" lon="6.86037294"><ele>1270.869263</ele><time>2008-04-14T16:56:44Z</time></trkpt>
<trkpt lat="47.05492545" lon="6.86103979"><ele>1270.730469</ele><time>2008-04-14T16:57:00Z</time></trkpt>
<trkpt lat="47.05546943" lon="6.86188946"><ele>1269.105591</ele><time>2008-04-14T16:57:22Z</time></trkpt>
<trkpt lat="47.05614066" lon="6.86300103"><ele>1270.344482</ele><time>2008-04-14T16:57:49Z</time></trkpt>
<trkpt lat="47.05705401" lon="6.86396524"><ele>1274.325439</ele><time>2008-04-14T16:58:19Z</time></trkpt>
<trkpt lat="47.05795619" lon="6.86449524"><ele>1276.458496</ele><time>2008-04-14T16:58:45Z</time></trkpt>
<trkpt lat="47.05907318" lon="6.86481236"><ele>1265.685913</ele><time>2008-04-14T16:59:15Z</time></trkpt>
<trkpt lat="47.05958346" lon="6.86612320"><ele>1254.696777</ele><time>2008-04-14T16:59:42Z</time></trkpt>
<trkpt lat="47.06020443" lon="6.86618239"><ele>1259.23999</ele><time>2008-04-14T16:59:59Z</time></trkpt>
<trkpt lat="47.06092401" lon="6.86617471"><ele>1263.398682</ele><time>2008-04-14T17:00:18Z</time></trkpt>
<trkpt lat="47.06142640" lon="6.86590608"><ele>1267.964355</ele><time>2008-04-14T17:00:33Z</time></trkpt>
<trkpt lat="47.06205833" lon="6.86636005"><ele>1265.088989</ele><time>2008-04-14T17:00:51Z</time></trkpt>
<trkpt lat="47.06255429" lon="6.86660487"><ele>1264.442871</ele><time>2008-04-14T17:01:05Z</time></trkpt>
<trkpt lat="47.06340412" lon="6.86746463"><ele>1259.651245</ele><time>2008-04-14T17:01:33Z</time></trkpt>
<trkpt lat="47.06390113" lon="6.86792008"><ele>1254.125244</ele><time>2008-04-14T17:01:49Z</time></trkpt>
<trkpt lat="47.06426379" lon="6.86849544"><ele>1246.570679</ele><time>2008-04-14T17:02:03Z</time></trkpt>
<trkpt lat="47.06544707" lon="6.86948336"><ele>1247.030518</ele><time>2008-04-14T17:02:39Z</time></trkpt>
<trkpt lat="47.06562383" lon="6.87066628"><ele>1235.50293</ele><time>2008-04-14T17:03:01Z</time></trkpt>
<trkpt lat="47.06626630" lon="6.87143619"><ele>1231.741211</ele><time>2008-04-14T17:03:23Z</time></trkpt>
<trkpt lat="47.06689051" lon="6.87215365"><ele>1225.797729</ele><time>2008-04-14T17:03:45Z</time></trkpt>
<trkpt lat="47.06743189" lon="6.87249022"><ele>1223.071411</ele><time>2008-04-14T17:04:00Z</time></trkpt>
<trkpt lat="47.06757872" lon="6.87308109"><ele>1217.478638</ele><time>2008-04-14T17:04:12Z</time></trkpt>
<trkpt lat="47.06739210" lon="6.87354383"><ele>1214.15686</ele><time>2008-04-14T17:04:22Z</time></trkpt>
<trkpt lat="47.06794109" lon="6.87543382"><ele>1206.746338</ele><time>2008-04-14T17:04:59Z</time></trkpt>
<trkpt lat="47.06996622" lon="6.87384585"><ele>1228.486206</ele><time>2008-04-14T17:06:00Z</time></trkpt>
<trkpt lat="47.07050720" lon="6.87410346"><ele>1231.895874</ele><time>2008-04-14T17:06:15Z</time></trkpt>
<trkpt lat="47.07081166" lon="6.87382378"><ele>1235.468384</ele><time>2008-04-14T17:06:25Z</time></trkpt>
<trkpt lat="47.07085087" lon="6.87265161"><ele>1239.861816</ele><time>2008-04-14T17:06:46Z</time></trkpt>
<trkpt lat="47.07121836" lon="6.87238442"><ele>1245.452515</ele><time>2008-04-14T17:06:57Z</time></trkpt>
<trkpt lat="47.07171625" lon="6.87302429"><ele>1252.000977</ele><time>2008-04-14T17:07:15Z</time></trkpt>
<trkpt lat="47.07230550" lon="6.87395287"><ele>1257.97937</ele><time>2008-04-14T17:07:38Z</time></trkpt>
<trkpt lat="47.07302444" lon="6.87381364"><ele>1267.787598</ele><time>2008-04-14T17:07:58Z</time></trkpt>
<trkpt lat="47.07278176" lon="6.87202559"><ele>1273.508789</ele><time>2008-04-14T17:08:31Z</time></trkpt>
<trkpt lat="47.07255078" lon="6.87079041"><ele>1280.716797</ele><time>2008-04-14T17:08:54Z</time></trkpt>
<trkpt lat="47.07264646" lon="6.87013108"><ele>1284.286621</ele><time>2008-04-14T17:09:06Z</time></trkpt>
</trkseg></trk></gpx>